Malvern, United Kingdom
Current Conditions -  °F | °C
As of 5:58 AM on Saturday 29 Nov 2014 (Local Time) from EGVA Reporting Station
Clear Clear  
Wind Chill: 41°   Ceiling: Unl
Heat Index: 46°   Visibility: 6mi
Dew Point: 45°   Wind: 8mph
Humidity: 99%   Direction: 50°NE
Pressure: 29.75"   Gusts: NA
Location:  52.05°N, 2.32°W
Report Text: EGVA 290558Z AUTO 05007KT 9999 CLR 08/07 A2975 RMK AO2 SLP079 60000 T00760074 10097 20076 52012 $
Loading
Personal Weather Stations






























Interactive Weather Map New forecast layout! Learn more

10-Day Weather Forecast

Advertisements
Track Severe Weather on mobile